Details for Ryanair at GCRR




Go Back


Latest METAR
Local Time

GCRR 221730Z 09007KT 9999 BKN035 20/16 Q1016

22/05/2018, 18:57:57

Description
Results
Ryanair Logo
Number of Pilots based at GCRR
0 Pilots Based here
Number of Ryanair Flights Departed from GCRR
4 Flights Departed
Number of Ryanair Flights Arrived at GCRR
4 Flights Arrived
Number of Ryanair Schedules Departing from GCRR
40 Schedules
Number of Ryanair Schedules Arriving at GCRR
40 Schedules
Number of Ryanair Schedules Departing from GCRR availible today
11 Schedules Today
Number of Ryanair Schedules Arriving at GCRR availible today
11 Schedules Today
Average Landing Rate at GCRR
-204 fpm
Ryanair Average Landing Rate at GCRR
-194 fpm
Total Fuel Purchased at GCRR by Ryanair
23,010.48 kgs / 50,728.90 lbs

Pilots Based at GCRR


Pilot ID
Pilot Name
Pilot Rank
No. of Flights
No. of Flying Hours
There are no pilots assigned to this hub!   Will you be the first?
Content